sensor_id;sensor_type;location;lat;lon;timestamp;temperature;humidity
17053;DHT22;8643;48.824;11.422;2023-11-21T00:00:10;6.50;99.90
17053;DHT22;8643;48.824;11.422;2023-11-21T00:02:42;6.50;99.90
17053;DHT22;8643;48.824;11.422;2023-11-21T00:05:11;6.50;99.90
17053;DHT22;8643;48.824;11.422;2023-11-21T00:07:41;6.50;99.90
17053;DHT22;8643;48.824;11.422;2023-11-21T00:10:12;6.40;99.90
17053;DHT22;8643;48.824;11.422;2023-11-21T00:12:43;6.40;99.90
17053;DHT22;8643;48.824;11.422;2023-11-21T00:15:11;6.50;99.90
17053;DHT22;8643;48.824;11.422;2023-11-21T00:17:41;6.50;99.90
17053;DHT22;8643;48.824;11.422;2023-11-21T00:20:10;6.40;99.90
17053;DHT22;8643;48.824;11.422;2023-11-21T00:22:41;6.50;99.90
17053;DHT22;8643;48.824;11.422;2023-11-21T00:25:10;6.50;99.90
17053;DHT22;8643;48.824;11.422;2023-11-21T00:27:42;6.50;99.90
17053;DHT22;8643;48.824;11.422;2023-11-21T00:30:12;6.30;99.90
17053;DHT22;8643;48.824;11.422;2023-11-21T00:32:43;6.50;99.90
17053;DHT22;8643;48.824;11.422;2023-11-21T00:35:12;6.40;99.90
17053;DHT22;8643;48.824;11.422;2023-11-21T00:37:40;6.40;99.90
17053;DHT22;8643;48.824;11.422;2023-11-21T00:40:10;6.40;99.90
17053;DHT22;8643;48.824;11.422;2023-11-21T00:42:39;6.50;99.90
17053;DHT22;8643;48.824;11.422;2023-11-21T00:45:09;6.50;99.90
17053;DHT22;8643;48.824;11.422;2023-11-21T00:47:38;6.40;99.90
17053;DHT22;8643;48.824;11.422;2023-11-21T00:50:08;6.40;99.90
17053;DHT22;8643;48.824;11.422;2023-11-21T00:52:37;6.30;99.90
17053;DHT22;8643;48.824;11.422;2023-11-21T00:55:06;6.30;99.90
17053;DHT22;8643;48.824;11.422;2023-11-21T00:57:36;6.30;99.90
17053;DHT22;8643;48.824;11.422;2023-11-21T01:00:06;6.30;99.90
17053;DHT22;8643;48.824;11.422;2023-11-21T01:02:36;6.30;99.90
17053;DHT22;8643;48.824;11.422;2023-11-21T01:05:05;6.30;99.90
17053;DHT22;8643;48.824;11.422;2023-11-21T01:07:37;6.40;99.90
17053;DHT22;8643;48.824;11.422;2023-11-21T01:10:06;6.50;99.90
17053;DHT22;8643;48.824;11.422;2023-11-21T01:12:36;6.30;99.90
17053;DHT22;8643;48.824;11.422;2023-11-21T01:15:06;6.30;99.90
17053;DHT22;8643;48.824;11.422;2023-11-21T01:17:35;6.30;99.90
17053;DHT22;8643;48.824;11.422;2023-11-21T01:20:06;6.40;99.90
17053;DHT22;8643;48.824;11.422;2023-11-21T01:22:41;6.30;99.90
17053;DHT22;8643;48.824;11.422;2023-11-21T01:25:10;6.30;99.90
17053;DHT22;8643;48.824;11.422;2023-11-21T01:27:38;6.30;99.90
17053;DHT22;8643;48.824;11.422;2023-11-21T01:30:07;6.20;99.90
17053;DHT22;8643;48.824;11.422;2023-11-21T01:32:37;6.20;99.90
17053;DHT22;8643;48.824;11.422;2023-11-21T01:35:07;6.20;99.90
17053;DHT22;8643;48.824;11.422;2023-11-21T01:37:37;6.30;99.90
17053;DHT22;8643;48.824;11.422;2023-11-21T01:40:09;6.20;99.90
17053;DHT22;8643;48.824;11.422;2023-11-21T01:42:41;6.20;99.90
17053;DHT22;8643;48.824;11.422;2023-11-21T01:45:12;6.10;99.90
17053;DHT22;8643;48.824;11.422;2023-11-21T01:47:42;5.20;99.90
17053;DHT22;8643;48.824;11.422;2023-11-21T01:50:15;6.10;99.90
17053;DHT22;8643;48.824;11.422;2023-11-21T01:52:45;6.10;99.90
17053;DHT22;8643;48.824;11.422;2023-11-21T01:55:18;6.10;99.90
17053;DHT22;8643;48.824;11.422;2023-11-21T01:57:55;6.10;99.90
17053;DHT22;8643;48.824;11.422;2023-11-21T02:00:25;6.10;99.90
17053;DHT22;8643;48.824;11.422;2023-11-21T02:02:56;6.20;99.90
17053;DHT22;8643;48.824;11.422;2023-11-21T02:05:25;6.20;99.90
17053;DHT22;8643;48.824;11.422;2023-11-21T02:07:54;6.20;99.90
17053;DHT22;8643;48.824;11.422;2023-11-21T02:10:25;6.20;99.90
17053;DHT22;8643;48.824;11.422;2023-11-21T02:12:53;6.20;99.90
17053;DHT22;8643;48.824;11.422;2023-11-21T02:15:23;6.30;99.90
17053;DHT22;8643;48.824;11.422;2023-11-21T02:17:55;6.20;99.90
17053;DHT22;8643;48.824;11.422;2023-11-21T02:20:27;6.20;99.90
17053;DHT22;8643;48.824;11.422;2023-11-21T02:22:58;6.20;99.90
17053;DHT22;8643;48.824;11.422;2023-11-21T02:25:28;6.20;99.90
17053;DHT22;8643;48.824;11.422;2023-11-21T02:28:00;6.20;99.90
17053;DHT22;8643;48.824;11.422;2023-11-21T02:30:30;6.20;99.90
17053;DHT22;8643;48.824;11.422;2023-11-21T02:33:00;6.20;99.90
17053;DHT22;8643;48.824;11.422;2023-11-21T02:35:30;6.30;99.90
17053;DHT22;8643;48.824;11.422;2023-11-21T02:38:01;6.10;99.90
17053;DHT22;8643;48.824;11.422;2023-11-21T02:40:29;6.10;99.90
17053;DHT22;8643;48.824;11.422;2023-11-21T02:42:58;6.10;99.90
17053;DHT22;8643;48.824;11.422;2023-11-21T02:47:55;6.10;99.90
17053;DHT22;8643;48.824;11.422;2023-11-21T02:50:26;6.10;99.90
17053;DHT22;8643;48.824;11.422;2023-11-21T02:52:55;6.10;99.90
17053;DHT22;8643;48.824;11.422;2023-11-21T02:55:28;6.00;99.90
17053;DHT22;8643;48.824;11.422;2023-11-21T02:57:57;6.00;99.90
17053;DHT22;8643;48.824;11.422;2023-11-21T03:00:27;6.00;99.90
17053;DHT22;8643;48.824;11.422;2023-11-21T03:02:56;6.00;99.90
17053;DHT22;8643;48.824;11.422;2023-11-21T03:05:25;6.10;99.90
17053;DHT22;8643;48.824;11.422;2023-11-21T03:07:56;6.10;99.90
17053;DHT22;8643;48.824;11.422;2023-11-21T03:10:25;6.10;99.90
17053;DHT22;8643;48.824;11.422;2023-11-21T03:12:56;6.10;99.90
17053;DHT22;8643;48.824;11.422;2023-11-21T03:15:25;6.10;99.90
17053;DHT22;8643;48.824;11.422;2023-11-21T03:17:53;6.10;99.90
17053;DHT22;8643;48.824;11.422;2023-11-21T03:20:23;6.10;99.90
17053;DHT22;8643;48.824;11.422;2023-11-21T03:22:52;6.10;99.90
17053;DHT22;8643;48.824;11.422;2023-11-21T03:25:21;6.10;99.90
17053;DHT22;8643;48.824;11.422;2023-11-21T03:27:51;6.10;99.90
17053;DHT22;8643;48.824;11.422;2023-11-21T03:30:22;6.10;99.90
17053;DHT22;8643;48.824;11.422;2023-11-21T03:32:50;6.10;99.90
17053;DHT22;8643;48.824;11.422;2023-11-21T03:35:19;6.10;99.90
17053;DHT22;8643;48.824;11.422;2023-11-21T03:37:48;6.10;99.90
17053;DHT22;8643;48.824;11.422;2023-11-21T03:40:17;6.10;99.90
17053;DHT22;8643;48.824;11.422;2023-11-21T03:42:45;6.10;99.90
17053;DHT22;8643;48.824;11.422;2023-11-21T03:45:14;4.70;99.90
17053;DHT22;8643;48.824;11.422;2023-11-21T03:47:44;6.10;99.90
17053;DHT22;8643;48.824;11.422;2023-11-21T03:50:13;6.10;99.90
17053;DHT22;8643;48.824;11.422;2023-11-21T03:52:43;6.10;99.90
17053;DHT22;8643;48.824;11.422;2023-11-21T03:55:12;6.10;99.90
17053;DHT22;8643;48.824;11.422;2023-11-21T03:57:42;6.10;99.90
17053;DHT22;8643;48.824;11.422;2023-11-21T04:00:12;6.10;99.90
17053;DHT22;8643;48.824;11.422;2023-11-21T04:02:41;6.10;99.90
17053;DHT22;8643;48.824;11.422;2023-11-21T04:05:11;6.10;99.90
17053;DHT22;8643;48.824;11.422;2023-11-21T04:07:39;6.10;99.90
17053;DHT22;8643;48.824;11.422;2023-11-21T04:10:08;6.10;99.90
17053;DHT22;8643;48.824;11.422;2023-11-21T04:12:40;6.10;99.90
17053;DHT22;8643;48.824;11.422;2023-11-21T04:15:09;6.20;99.90
17053;DHT22;8643;48.824;11.422;2023-11-21T04:17:40;6.20;99.90
17053;DHT22;8643;48.824;11.422;2023-11-21T04:20:10;6.20;99.90
17053;DHT22;8643;48.824;11.422;2023-11-21T04:22:39;6.30;99.90
17053;DHT22;8643;48.824;11.422;2023-11-21T04:25:13;6.30;99.90
17053;DHT22;8643;48.824;11.422;2023-11-21T04:27:45;6.30;99.90
17053;DHT22;8643;48.824;11.422;2023-11-21T04:30:14;6.30;99.90
17053;DHT22;8643;48.824;11.422;2023-11-21T04:32:43;6.30;99.90
17053;DHT22;8643;48.824;11.422;2023-11-21T04:35:15;6.30;99.90
17053;DHT22;8643;48.824;11.422;2023-11-21T04:37:43;6.30;99.90
17053;DHT22;8643;48.824;11.422;2023-11-21T04:40:12;6.30;99.90
17053;DHT22;8643;48.824;11.422;2023-11-21T04:42:40;6.30;99.90
17053;DHT22;8643;48.824;11.422;2023-11-21T04:45:09;6.30;99.90
17053;DHT22;8643;48.824;11.422;2023-11-21T04:47:40;6.30;99.90
17053;DHT22;8643;48.824;11.422;2023-11-21T04:50:09;6.30;99.90
17053;DHT22;8643;48.824;11.422;2023-11-21T04:52:39;6.30;99.90
17053;DHT22;8643;48.824;11.422;2023-11-21T04:55:08;6.30;99.90
17053;DHT22;8643;48.824;11.422;2023-11-21T04:57:38;6.30;99.90
17053;DHT22;8643;48.824;11.422;2023-11-21T05:00:09;6.30;99.90
17053;DHT22;8643;48.824;11.422;2023-11-21T05:02:40;6.30;99.90
17053;DHT22;8643;48.824;11.422;2023-11-21T05:05:11;6.30;99.90
17053;DHT22;8643;48.824;11.422;2023-11-21T05:07:40;6.20;99.90
17053;DHT22;8643;48.824;11.422;2023-11-21T05:10:10;6.20;99.90
17053;DHT22;8643;48.824;11.422;2023-11-21T05:12:42;6.20;99.90
17053;DHT22;8643;48.824;11.422;2023-11-21T05:15:14;6.20;99.90
17053;DHT22;8643;48.824;11.422;2023-11-21T05:17:44;6.30;99.90
17053;DHT22;8643;48.824;11.422;2023-11-21T05:20:18;6.30;99.90
17053;DHT22;8643;48.824;11.422;2023-11-21T05:22:49;6.30;99.90
17053;DHT22;8643;48.824;11.422;2023-11-21T05:25:18;6.30;99.90
17053;DHT22;8643;48.824;11.422;2023-11-21T05:27:47;6.30;99.90
17053;DHT22;8643;48.824;11.422;2023-11-21T05:32:45;6.30;99.90
17053;DHT22;8643;48.824;11.422;2023-11-21T05:35:14;6.30;99.90
17053;DHT22;8643;48.824;11.422;2023-11-21T05:37:44;6.20;99.90
17053;DHT22;8643;48.824;11.422;2023-11-21T05:40:15;6.20;99.90
17053;DHT22;8643;48.824;11.422;2023-11-21T05:42:45;6.20;99.90
17053;DHT22;8643;48.824;11.422;2023-11-21T05:45:13;6.30;99.90
17053;DHT22;8643;48.824;11.422;2023-11-21T05:47:44;6.30;99.90
17053;DHT22;8643;48.824;11.422;2023-11-21T05:50:15;6.30;99.90
17053;DHT22;8643;48.824;11.422;2023-11-21T05:52:46;6.40;99.90
17053;DHT22;8643;48.824;11.422;2023-11-21T05:55:17;6.40;99.90
17053;DHT22;8643;48.824;11.422;2023-11-21T05:57:48;6.30;99.90
17053;DHT22;8643;48.824;11.422;2023-11-21T06:00:17;6.30;99.90
17053;DHT22;8643;48.824;11.422;2023-11-21T06:02:48;6.30;99.90
17053;DHT22;8643;48.824;11.422;2023-11-21T06:05:22;6.20;99.90
17053;DHT22;8643;48.824;11.422;2023-11-21T06:07:54;6.20;99.90
17053;DHT22;8643;48.824;11.422;2023-11-21T06:10:27;6.20;99.90
17053;DHT22;8643;48.824;11.422;2023-11-21T06:12:56;6.20;99.90
17053;DHT22;8643;48.824;11.422;2023-11-21T06:15:29;6.20;99.90
17053;DHT22;8643;48.824;11.422;2023-11-21T06:17:58;6.20;99.90
17053;DHT22;8643;48.824;11.422;2023-11-21T06:20:27;6.20;99.90
17053;DHT22;8643;48.824;11.422;2023-11-21T06:22:55;6.20;99.90
17053;DHT22;8643;48.824;11.422;2023-11-21T06:25:23;6.20;99.90
17053;DHT22;8643;48.824;11.422;2023-11-21T06:27:53;6.30;99.90
17053;DHT22;8643;48.824;11.422;2023-11-21T06:30:23;6.20;99.90
17053;DHT22;8643;48.824;11.422;2023-11-21T06:32:51;6.20;99.90
17053;DHT22;8643;48.824;11.422;2023-11-21T06:37:49;6.30;99.90
17053;DHT22;8643;48.824;11.422;2023-11-21T06:40:19;6.30;99.90
17053;DHT22;8643;48.824;11.422;2023-11-21T06:42:48;6.30;99.90
17053;DHT22;8643;48.824;11.422;2023-11-21T06:45:19;6.30;99.90
17053;DHT22;8643;48.824;11.422;2023-11-21T06:47:48;6.40;99.90
17053;DHT22;8643;48.824;11.422;2023-11-21T06:50:17;6.40;99.90
17053;DHT22;8643;48.824;11.422;2023-11-21T06:52:46;6.50;99.90
17053;DHT22;8643;48.824;11.422;2023-11-21T06:57:44;6.40;99.90
17053;DHT22;8643;48.824;11.422;2023-11-21T07:00:17;6.50;99.90
17053;DHT22;8643;48.824;11.422;2023-11-21T07:02:47;6.50;99.90
17053;DHT22;8643;48.824;11.422;2023-11-21T07:05:16;6.50;99.90
17053;DHT22;8643;48.824;11.422;2023-11-21T07:07:48;6.40;99.90
17053;DHT22;8643;48.824;11.422;2023-11-21T07:10:18;6.40;99.90
17053;DHT22;8643;48.824;11.422;2023-11-21T07:12:46;6.40;99.90
17053;DHT22;8643;48.824;11.422;2023-11-21T07:15:15;6.40;99.90
17053;DHT22;8643;48.824;11.422;2023-11-21T07:17:45;6.50;99.90
17053;DHT22;8643;48.824;11.422;2023-11-21T07:20:16;6.50;99.90
17053;DHT22;8643;48.824;11.422;2023-11-21T07:22:45;6.60;99.90
17053;DHT22;8643;48.824;11.422;2023-11-21T07:25:14;6.60;99.90
17053;DHT22;8643;48.824;11.422;2023-11-21T07:30:13;6.60;99.90
17053;DHT22;8643;48.824;11.422;2023-11-21T07:32:41;6.70;99.90
17053;DHT22;8643;48.824;11.422;2023-11-21T07:35:13;6.80;99.90
17053;DHT22;8643;48.824;11.422;2023-11-21T07:37:42;6.80;99.90
17053;DHT22;8643;48.824;11.422;2023-11-21T07:40:11;6.80;99.90
17053;DHT22;8643;48.824;11.422;2023-11-21T07:42:40;6.80;99.90
17053;DHT22;8643;48.824;11.422;2023-11-21T07:45:10;6.90;99.90
17053;DHT22;8643;48.824;11.422;2023-11-21T07:47:39;6.90;99.90
17053;DHT22;8643;48.824;11.422;2023-11-21T07:50:08;6.90;99.90
17053;DHT22;8643;48.824;11.422;2023-11-21T07:52:39;6.90;99.90
17053;DHT22;8643;48.824;11.422;2023-11-21T07:55:08;6.90;99.90
17053;DHT22;8643;48.824;11.422;2023-11-21T07:57:36;6.90;99.90
17053;DHT22;8643;48.824;11.422;2023-11-21T08:00:06;6.90;99.90
17053;DHT22;8643;48.824;11.422;2023-11-21T08:02:40;6.90;99.90
17053;DHT22;8643;48.824;11.422;2023-11-21T08:05:10;6.80;99.90
17053;DHT22;8643;48.824;11.422;2023-11-21T08:07:52;6.90;99.90
17053;DHT22;8643;48.824;11.422;2023-11-21T08:10:20;7.10;99.90
17053;DHT22;8643;48.824;11.422;2023-11-21T08:12:49;7.00;99.90
17053;DHT22;8643;48.824;11.422;2023-11-21T08:15:18;7.10;99.90
17053;DHT22;8643;48.824;11.422;2023-11-21T08:17:47;7.10;99.90
17053;DHT22;8643;48.824;11.422;2023-11-21T08:20:16;7.20;99.90
17053;DHT22;8643;48.824;11.422;2023-11-21T08:22:45;7.10;99.90
17053;DHT22;8643;48.824;11.422;2023-11-21T08:25:17;7.10;99.90
17053;DHT22;8643;48.824;11.422;2023-11-21T08:27:47;7.10;99.90
17053;DHT22;8643;48.824;11.422;2023-11-21T08:30:16;7.20;99.90
17053;DHT22;8643;48.824;11.422;2023-11-21T08:32:46;7.20;99.90
17053;DHT22;8643;48.824;11.422;2023-11-21T08:35:15;7.20;99.90
17053;DHT22;8643;48.824;11.422;2023-11-21T08:37:43;7.20;99.90
17053;DHT22;8643;48.824;11.422;2023-11-21T08:40:12;7.20;99.90
17053;DHT22;8643;48.824;11.422;2023-11-21T08:42:45;7.10;99.90
17053;DHT22;8643;48.824;11.422;2023-11-21T08:45:14;7.20;99.90
17053;DHT22;8643;48.824;11.422;2023-11-21T08:47:44;7.30;99.90
17053;DHT22;8643;48.824;11.422;2023-11-21T08:50:14;7.20;99.90
17053;DHT22;8643;48.824;11.422;2023-11-21T08:52:43;7.30;99.90
17053;DHT22;8643;48.824;11.422;2023-11-21T08:55:13;7.30;99.90
17053;DHT22;8643;48.824;11.422;2023-11-21T08:57:45;7.30;99.90
17053;DHT22;8643;48.824;11.422;2023-11-21T09:00:14;7.20;99.90
17053;DHT22;8643;48.824;11.422;2023-11-21T09:05:14;7.30;99.90
17053;DHT22;8643;48.824;11.422;2023-11-21T09:07:44;7.30;99.90
17053;DHT22;8643;48.824;11.422;2023-11-21T09:10:15;7.20;99.90
17053;DHT22;8643;48.824;11.422;2023-11-21T09:12:45;7.30;99.90
17053;DHT22;8643;48.824;11.422;2023-11-21T09:15:14;7.20;99.90
17053;DHT22;8643;48.824;11.422;2023-11-21T09:17:42;7.20;99.90
17053;DHT22;8643;48.824;11.422;2023-11-21T09:20:12;7.20;99.90
17053;DHT22;8643;48.824;11.422;2023-11-21T09:22:42;7.20;99.90
17053;DHT22;8643;48.824;11.422;2023-11-21T09:25:11;7.20;99.90
17053;DHT22;8643;48.824;11.422;2023-11-21T09:27:40;7.20;99.90
17053;DHT22;8643;48.824;11.422;2023-11-21T09:30:11;7.30;99.90
17053;DHT22;8643;48.824;11.422;2023-11-21T09:32:41;7.30;99.90
17053;DHT22;8643;48.824;11.422;2023-11-21T09:35:12;7.30;99.90
17053;DHT22;8643;48.824;11.422;2023-11-21T09:37:43;7.30;99.90
17053;DHT22;8643;48.824;11.422;2023-11-21T09:40:21;7.30;99.90
17053;DHT22;8643;48.824;11.422;2023-11-21T09:42:54;7.40;99.90
17053;DHT22;8643;48.824;11.422;2023-11-21T09:45:27;7.50;99.90
17053;DHT22;8643;48.824;11.422;2023-11-21T09:47:58;7.40;99.90
17053;DHT22;8643;48.824;11.422;2023-11-21T09:50:27;7.50;99.90
17053;DHT22;8643;48.824;11.422;2023-11-21T09:53:00;7.50;99.90
17053;DHT22;8643;48.824;11.422;2023-11-21T09:55:39;7.60;99.90
17053;DHT22;8643;48.824;11.422;2023-11-21T09:58:11;7.70;99.90
17053;DHT22;8643;48.824;11.422;2023-11-21T10:00:43;7.70;99.90
17053;DHT22;8643;48.824;11.422;2023-11-21T10:03:13;7.70;99.90
17053;DHT22;8643;48.824;11.422;2023-11-21T10:05:44;7.90;99.90
17053;DHT22;8643;48.824;11.422;2023-11-21T10:08:13;7.90;99.90
17053;DHT22;8643;48.824;11.422;2023-11-21T10:10:43;7.90;99.90
17053;DHT22;8643;48.824;11.422;2023-11-21T10:13:14;8.00;99.90
17053;DHT22;8643;48.824;11.422;2023-11-21T10:15:49;8.00;99.90
17053;DHT22;8643;48.824;11.422;2023-11-21T10:18:20;8.00;99.90
17053;DHT22;8643;48.824;11.422;2023-11-21T10:20:53;8.00;99.90
17053;DHT22;8643;48.824;11.422;2023-11-21T10:23:23;8.00;99.90
17053;DHT22;8643;48.824;11.422;2023-11-21T10:25:52;8.00;99.90
17053;DHT22;8643;48.824;11.422;2023-11-21T10:28:25;8.00;99.90
17053;DHT22;8643;48.824;11.422;2023-11-21T10:30:56;8.00;99.90
17053;DHT22;8643;48.824;11.422;2023-11-21T10:33:28;7.90;99.90
17053;DHT22;8643;48.824;11.422;2023-11-21T10:35:57;7.90;99.90
17053;DHT22;8643;48.824;11.422;2023-11-21T10:38:26;8.00;99.90
17053;DHT22;8643;48.824;11.422;2023-11-21T10:40:57;7.90;99.90
17053;DHT22;8643;48.824;11.422;2023-11-21T10:43:26;7.90;99.90
17053;DHT22;8643;48.824;11.422;2023-11-21T10:45:58;7.80;99.90
17053;DHT22;8643;48.824;11.422;2023-11-21T10:48:28;8.00;99.90
17053;DHT22;8643;48.824;11.422;2023-11-21T10:50:56;7.90;99.90
17053;DHT22;8643;48.824;11.422;2023-11-21T10:53:28;7.90;99.90
17053;DHT22;8643;48.824;11.422;2023-11-21T10:56:02;7.90;99.90
17053;DHT22;8643;48.824;11.422;2023-11-21T10:58:35;7.90;99.90
17053;DHT22;8643;48.824;11.422;2023-11-21T11:01:07;7.90;99.90
17053;DHT22;8643;48.824;11.422;2023-11-21T11:06:08;8.00;99.90
17053;DHT22;8643;48.824;11.422;2023-11-21T11:08:39;8.00;99.90
17053;DHT22;8643;48.824;11.422;2023-11-21T11:11:07;8.00;99.90
17053;DHT22;8643;48.824;11.422;2023-11-21T11:13:38;8.00;99.90
17053;DHT22;8643;48.824;11.422;2023-11-21T11:16:12;8.10;99.90
17053;DHT22;8643;48.824;11.422;2023-11-21T11:18:44;8.10;99.90
17053;DHT22;8643;48.824;11.422;2023-11-21T11:21:23;8.20;99.90
17053;DHT22;8643;48.824;11.422;2023-11-21T11:24:11;8.10;99.90
17053;DHT22;8643;48.824;11.422;2023-11-21T11:26:51;8.10;99.90
17053;DHT22;8643;48.824;11.422;2023-11-21T11:29:35;8.20;99.90
17053;DHT22;8643;48.824;11.422;2023-11-21T11:32:21;8.30;99.90
17053;DHT22;8643;48.824;11.422;2023-11-21T11:35:00;8.30;99.90
17053;DHT22;8643;48.824;11.422;2023-11-21T11:37:32;8.40;99.90
17053;DHT22;8643;48.824;11.422;2023-11-21T11:40:01;8.30;99.90
17053;DHT22;8643;48.824;11.422;2023-11-21T11:42:34;8.40;99.90
17053;DHT22;8643;48.824;11.422;2023-11-21T11:45:17;8.40;99.90
17053;DHT22;8643;48.824;11.422;2023-11-21T11:47:56;8.30;99.90
17053;DHT22;8643;48.824;11.422;2023-11-21T11:50:25;8.30;99.90
17053;DHT22;8643;48.824;11.422;2023-11-21T11:52:54;8.20;99.90
17053;DHT22;8643;48.824;11.422;2023-11-21T11:55:25;8.30;99.90
17053;DHT22;8643;48.824;11.422;2023-11-21T11:57:58;8.30;99.90
17053;DHT22;8643;48.824;11.422;2023-11-21T12:00:34;8.40;99.90
17053;DHT22;8643;48.824;11.422;2023-11-21T12:03:09;8.50;99.90
17053;DHT22;8643;48.824;11.422;2023-11-21T12:05:37;8.70;99.90
17053;DHT22;8643;48.824;11.422;2023-11-21T12:08:07;8.80;99.90
17053;DHT22;8643;48.824;11.422;2023-11-21T12:10:38;8.90;99.90
17053;DHT22;8643;48.824;11.422;2023-11-21T12:13:10;8.90;99.90
17053;DHT22;8643;48.824;11.422;2023-11-21T12:15:40;9.10;99.90
17053;DHT22;8643;48.824;11.422;2023-11-21T12:18:10;9.00;99.90
17053;DHT22;8643;48.824;11.422;2023-11-21T12:20:39;9.20;99.90
17053;DHT22;8643;48.824;11.422;2023-11-21T12:23:09;9.30;99.90
17053;DHT22;8643;48.824;11.422;2023-11-21T12:25:41;9.30;99.90
17053;DHT22;8643;48.824;11.422;2023-11-21T12:28:10;9.40;99.90
17053;DHT22;8643;48.824;11.422;2023-11-21T12:30:39;9.40;99.90
17053;DHT22;8643;48.824;11.422;2023-11-21T12:33:07;9.40;99.90
17053;DHT22;8643;48.824;11.422;2023-11-21T12:35:40;9.30;99.90
17053;DHT22;8643;48.824;11.422;2023-11-21T12:38:10;9.20;99.90
17053;DHT22;8643;48.824;11.422;2023-11-21T12:40:40;9.20;99.90
17053;DHT22;8643;48.824;11.422;2023-11-21T12:43:09;9.30;99.90
17053;DHT22;8643;48.824;11.422;2023-11-21T12:45:37;9.40;99.90
17053;DHT22;8643;48.824;11.422;2023-11-21T12:48:06;9.70;99.90
17053;DHT22;8643;48.824;11.422;2023-11-21T12:50:38;9.90;99.90
17053;DHT22;8643;48.824;11.422;2023-11-21T12:53:08;9.90;99.90
17053;DHT22;8643;48.824;11.422;2023-11-21T12:55:39;9.80;99.90
17053;DHT22;8643;48.824;11.422;2023-11-21T12:58:10;9.70;99.90
17053;DHT22;8643;48.824;11.422;2023-11-21T13:00:42;9.70;99.90
17053;DHT22;8643;48.824;11.422;2023-11-21T13:03:14;9.60;99.90
17053;DHT22;8643;48.824;11.422;2023-11-21T13:05:48;9.60;99.90
17053;DHT22;8643;48.824;11.422;2023-11-21T13:08:20;9.80;99.90
17053;DHT22;8643;48.824;11.422;2023-11-21T13:10:53;9.80;99.90
17053;DHT22;8643;48.824;11.422;2023-11-21T13:13:25;9.70;99.90
17053;DHT22;8643;48.824;11.422;2023-11-21T13:15:56;9.60;99.90
17053;DHT22;8643;48.824;11.422;2023-11-21T13:18:28;9.50;99.90
17053;DHT22;8643;48.824;11.422;2023-11-21T13:21:01;9.40;99.90
17053;DHT22;8643;48.824;11.422;2023-11-21T13:23:34;9.40;99.90
17053;DHT22;8643;48.824;11.422;2023-11-21T13:26:05;9.30;99.90
17053;DHT22;8643;48.824;11.422;2023-11-21T13:28:36;9.20;99.90
17053;DHT22;8643;48.824;11.422;2023-11-21T13:31:06;9.10;99.90
17053;DHT22;8643;48.824;11.422;2023-11-21T13:33:49;9.00;99.90
17053;DHT22;8643;48.824;11.422;2023-11-21T13:38:58;9.00;99.90
17053;DHT22;8643;48.824;11.422;2023-11-21T13:41:32;8.90;99.90
17053;DHT22;8643;48.824;11.422;2023-11-21T13:44:01;8.90;99.90
17053;DHT22;8643;48.824;11.422;2023-11-21T13:46:41;8.90;99.90
17053;DHT22;8643;48.824;11.422;2023-11-21T13:49:11;8.80;99.90
17053;DHT22;8643;48.824;11.422;2023-11-21T13:51:42;8.70;99.90
17053;DHT22;8643;48.824;11.422;2023-11-21T13:54:12;8.70;99.90
17053;DHT22;8643;48.824;11.422;2023-11-21T13:56:41;8.70;99.90
17053;DHT22;8643;48.824;11.422;2023-11-21T13:59:12;8.70;99.90
17053;DHT22;8643;48.824;11.422;2023-11-21T14:04:26;8.60;99.90
17053;DHT22;8643;48.824;11.422;2023-11-21T14:07:19;8.60;99.90
17053;DHT22;8643;48.824;11.422;2023-11-21T14:09:59;8.60;99.90
17053;DHT22;8643;48.824;11.422;2023-11-21T14:12:28;8.60;99.90
17053;DHT22;8643;48.824;11.422;2023-11-21T14:15:05;8.60;99.90
17053;DHT22;8643;48.824;11.422;2023-11-21T14:17:37;8.50;99.90
17053;DHT22;8643;48.824;11.422;2023-11-21T14:20:09;8.50;99.90
17053;DHT22;8643;48.824;11.422;2023-11-21T14:22:45;8.50;99.90
17053;DHT22;8643;48.824;11.422;2023-11-21T14:25:14;8.40;99.90
17053;DHT22;8643;48.824;11.422;2023-11-21T14:27:44;8.40;99.90
17053;DHT22;8643;48.824;11.422;2023-11-21T14:30:13;8.30;99.90
17053;DHT22;8643;48.824;11.422;2023-11-21T14:32:45;8.30;99.90
17053;DHT22;8643;48.824;11.422;2023-11-21T14:35:15;8.20;99.90
17053;DHT22;8643;48.824;11.422;2023-11-21T14:37:45;8.20;99.90
17053;DHT22;8643;48.824;11.422;2023-11-21T14:40:14;8.20;99.90
17053;DHT22;8643;48.824;11.422;2023-11-21T14:42:44;8.20;99.90
17053;DHT22;8643;48.824;11.422;2023-11-21T14:45:14;8.20;99.90
17053;DHT22;8643;48.824;11.422;2023-11-21T14:47:47;8.20;99.90
17053;DHT22;8643;48.824;11.422;2023-11-21T14:50:24;8.30;99.90
17053;DHT22;8643;48.824;11.422;2023-11-21T14:53:13;8.60;99.90
17053;DHT22;8643;48.824;11.422;2023-11-21T14:55:41;8.60;99.90
17053;DHT22;8643;48.824;11.422;2023-11-21T14:58:24;8.50;99.90
17053;DHT22;8643;48.824;11.422;2023-11-21T15:00:56;8.50;99.90
17053;DHT22;8643;48.824;11.422;2023-11-21T15:03:25;8.30;99.90
17053;DHT22;8643;48.824;11.422;2023-11-21T15:06:10;8.30;99.90
17053;DHT22;8643;48.824;11.422;2023-11-21T15:08:56;8.20;99.90
17053;DHT22;8643;48.824;11.422;2023-11-21T15:11:44;8.10;99.90
17053;DHT22;8643;48.824;11.422;2023-11-21T15:16:48;8.00;99.90
17053;DHT22;8643;48.824;11.422;2023-11-21T15:19:20;8.00;99.90
17053;DHT22;8643;48.824;11.422;2023-11-21T15:21:53;7.90;99.90
17053;DHT22;8643;48.824;11.422;2023-11-21T15:24:23;7.90;99.90
17053;DHT22;8643;48.824;11.422;2023-11-21T15:26:52;7.90;99.90
17053;DHT22;8643;48.824;11.422;2023-11-21T15:29:21;7.90;99.90
17053;DHT22;8643;48.824;11.422;2023-11-21T15:31:49;7.80;99.90
17053;DHT22;8643;48.824;11.422;2023-11-21T15:34:20;7.80;99.90
17053;DHT22;8643;48.824;11.422;2023-11-21T15:36:49;7.80;99.90
17053;DHT22;8643;48.824;11.422;2023-11-21T15:39:20;7.80;99.90
17053;DHT22;8643;48.824;11.422;2023-11-21T15:41:54;7.80;99.90
17053;DHT22;8643;48.824;11.422;2023-11-21T15:44:22;7.80;99.90
17053;DHT22;8643;48.824;11.422;2023-11-21T15:46:53;7.80;99.90
17053;DHT22;8643;48.824;11.422;2023-11-21T15:49:21;7.80;99.90
17053;DHT22;8643;48.824;11.422;2023-11-21T15:51:50;7.80;99.90
17053;DHT22;8643;48.824;11.422;2023-11-21T15:54:22;7.70;99.90
17053;DHT22;8643;48.824;11.422;2023-11-21T15:56:52;7.80;99.90
17053;DHT22;8643;48.824;11.422;2023-11-21T15:59:24;7.80;99.90
17053;DHT22;8643;48.824;11.422;2023-11-21T16:01:58;7.70;99.90
17053;DHT22;8643;48.824;11.422;2023-11-21T16:04:27;7.70;99.90
17053;DHT22;8643;48.824;11.422;2023-11-21T16:06:55;7.70;99.90
17053;DHT22;8643;48.824;11.422;2023-11-21T16:09:26;7.70;99.90
17053;DHT22;8643;48.824;11.422;2023-11-21T16:12:01;7.70;99.90
17053;DHT22;8643;48.824;11.422;2023-11-21T16:14:32;7.60;99.90
17053;DHT22;8643;48.824;11.422;2023-11-21T16:17:06;7.60;99.90
17053;DHT22;8643;48.824;11.422;2023-11-21T16:19:37;7.60;99.90
17053;DHT22;8643;48.824;11.422;2023-11-21T16:22:06;7.60;99.90
17053;DHT22;8643;48.824;11.422;2023-11-21T16:27:06;7.50;99.90
17053;DHT22;8643;48.824;11.422;2023-11-21T16:29:37;7.50;99.90
17053;DHT22;8643;48.824;11.422;2023-11-21T16:32:07;7.50;99.90
17053;DHT22;8643;48.824;11.422;2023-11-21T16:34:38;7.50;99.90